Time,TemperatureF,DewpointF,PressureIn,WindDirection,WindDirectionDegrees,WindSpeedMPH,WindSpeedGustMPH,Humidity,HourlyPrecipIn,Conditions,Clouds,dailyrainin,SoftwareType,DateUTC
2013-08-16 00:01:00,55.7,52.2,30.10,North,32767,-999.0,6.0,88,0.00,,,0.01,Wunderground v.1.15,2013-08-16 04:01:00,
2013-08-16 00:02:00,55.7,52.2,30.10,North,32767,-999.0,6.0,88,0.00,,,0.00,Wunderground v.1.15,2013-08-16 04:02:00,
2013-08-16 00:04:00,55.7,52.2,30.10,North,32767,-999.0,6.0,88,0.00,,,0.00,Wunderground v.1.15,2013-08-16 04:04:00,
2013-08-16 00:06:00,55.7,52.2,30.10,North,32767,-999.0,6.0,88,0.00,,,0.00,Wunderground v.1.15,2013-08-16 04:06:00,
2013-08-16 00:10:00,55.7,52.5,30.10,North,32767,-999.0,6.0,89,0.00,,,0.00,Wunderground v.1.15,2013-08-16 04:10:00,
2013-08-16 00:15:00,55.6,52.4,30.10,North,32767,-999.0,6.0,89,0.00,,,0.00,Wunderground v.1.15,2013-08-16 04:15:00,
2013-08-16 00:20:00,55.4,52.2,30.10,North,32767,-999.0,6.0,89,0.00,,,0.00,Wunderground v.1.15,2013-08-16 04:20:00,
2013-08-16 00:25:00,55.3,52.1,30.10,North,32767,-999.0,6.0,89,0.00,,,0.00,Wunderground v.1.15,2013-08-16 04:25:00,
2013-08-16 00:30:00,55.1,51.9,30.10,North,32767,-999.0,6.0,89,0.00,,,0.00,Wunderground v.1.15,2013-08-16 04:30:00,
2013-08-16 00:36:00,55.0,51.8,30.10,North,32767,-999.0,6.0,89,0.00,,,0.00,Wunderground v.1.15,2013-08-16 04:36:00,
2013-08-16 00:41:00,55.0,51.8,30.09,North,32767,-999.0,6.0,89,0.00,,,0.00,Wunderground v.1.15,2013-08-16 04:41:00,
2013-08-16 00:46:00,55.0,51.8,30.10,North,32767,-999.0,6.0,89,0.00,,,0.00,Wunderground v.1.15,2013-08-16 04:46:00,
2013-08-16 00:52:00,54.9,51.7,30.10,North,32767,-999.0,6.0,89,0.00,,,0.00,Wunderground v.1.15,2013-08-16 04:52:00,
2013-08-16 00:57:00,54.8,51.6,30.10,North,32767,-999.0,6.0,89,0.00,,,0.00,Wunderground v.1.15,2013-08-16 04:57:00,
2013-08-16 01:02:00,54.6,51.4,30.09,North,32767,-999.0,6.0,89,0.00,,,0.00,Wunderground v.1.15,2013-08-16 05:02:00,
2013-08-16 01:07:00,54.5,51.3,30.09,North,32767,-999.0,6.0,89,0.00,,,0.00,Wunderground v.1.15,2013-08-16 05:07:00,
2013-08-16 01:12:00,54.4,51.5,30.09,NE,36,0.0,6.0,90,0.00,,,0.00,Wunderground v.1.15,2013-08-16 05:12:00,
2013-08-16 01:20:00,54.1,51.2,30.09,NE,36,0.0,6.0,90,0.00,,,0.00,Wunderground v.1.15,2013-08-16 05:20:00,
2013-08-16 01:26:00,53.9,51.0,30.09,NE,36,0.0,6.0,90,0.00,,,0.00,Wunderground v.1.15,2013-08-16 05:26:00,
2013-08-16 01:31:00,53.7,50.8,30.09,NE,36,0.0,6.0,90,0.00,,,0.00,Wunderground v.1.15,2013-08-16 05:31:00,
2013-08-16 01:36:00,53.5,50.9,30.09,NE,36,0.0,6.0,91,0.00,,,0.00,Wunderground v.1.15,2013-08-16 05:36:00,
2013-08-16 01:41:00,53.4,50.8,30.09,NE,36,0.0,6.0,91,0.00,,,0.00,Wunderground v.1.15,2013-08-16 05:41:00,
2013-08-16 01:47:00,53.4,50.8,30.09,NE,36,0.0,6.0,91,0.00,,,0.00,Wunderground v.1.15,2013-08-16 05:47:00,
2013-08-16 01:52:00,53.5,50.9,30.09,NE,36,0.0,6.0,91,0.00,,,0.00,Wunderground v.1.15,2013-08-16 05:52:00,
2013-08-16 01:57:00,53.6,51.3,30.09,NE,36,0.0,6.0,92,0.00,,,0.00,Wunderground v.1.15,2013-08-16 05:57:00,
2013-08-16 02:03:00,53.7,51.1,30.09,NE,36,0.0,6.0,91,0.00,,,0.00,Wunderground v.1.15,2013-08-16 06:03:00,
2013-08-16 02:08:00,53.8,51.2,30.09,NE,36,0.0,6.0,91,0.00,,,0.00,Wunderground v.1.15,2013-08-16 06:08:00,
2013-08-16 02:13:00,53.9,51.3,30.09,NE,36,0.0,6.0,91,0.00,,,0.00,Wunderground v.1.15,2013-08-16 06:13:00,
2013-08-16 02:18:00,54.1,51.5,30.09,NE,36,0.0,6.0,91,0.00,,,0.00,Wunderground v.1.15,2013-08-16 06:18:00,
2013-08-16 02:23:00,54.2,51.6,30.09,NE,36,0.0,6.0,91,0.00,,,0.00,Wunderground v.1.15,2013-08-16 06:23:00,
2013-08-16 02:28:00,54.4,51.5,30.09,NE,36,0.0,6.0,90,0.00,,,0.00,Wunderground v.1.15,2013-08-16 06:28:00,
2013-08-16 02:34:00,54.4,51.5,30.09,NE,36,0.0,6.0,90,0.00,,,0.00,Wunderground v.1.15,2013-08-16 06:34:00,
2013-08-16 02:39:00,54.3,51.4,30.09,NE,36,0.0,6.0,90,0.00,,,0.00,Wunderground v.1.15,2013-08-16 06:39:00,
2013-08-16 02:44:00,54.3,51.4,30.09,NE,36,0.0,6.0,90,0.00,,,0.00,Wunderground v.1.15,2013-08-16 06:44:00,
2013-08-16 02:49:00,54.3,51.4,30.09,NE,36,0.0,6.0,90,0.00,,,0.00,Wunderground v.1.15,2013-08-16 06:49:00,
2013-08-16 02:54:00,54.4,51.2,30.09,NE,36,0.0,6.0,89,0.00,,,0.00,Wunderground v.1.15,2013-08-16 06:54:00,
2013-08-16 03:00:00,54.6,51.4,30.09,NE,36,0.0,6.0,89,0.00,,,0.00,Wunderground v.1.15,2013-08-16 07:00:00,
2013-08-16 03:05:00,54.7,51.5,30.09,NE,36,0.0,6.0,89,0.00,,,0.00,Wunderground v.1.15,2013-08-16 07:05:00,
2013-08-16 03:10:00,54.8,51.6,30.09,NE,36,0.0,6.0,89,0.00,,,0.00,Wunderground v.1.15,2013-08-16 07:10:00,
2013-08-16 03:15:00,54.9,51.4,30.09,NE,36,0.0,6.0,88,0.00,,,0.00,Wunderground v.1.15,2013-08-16 07:15:00,
2013-08-16 03:20:00,55.1,51.6,30.09,NE,36,0.0,6.0,88,0.00,,,0.00,Wunderground v.1.15,2013-08-16 07:20:00,
2013-08-16 03:26:00,55.3,51.5,30.09,NE,36,0.0,6.0,87,0.00,,,0.00,Wunderground v.1.15,2013-08-16 07:26:00,
2013-08-16 03:32:00,55.4,51.6,30.09,NE,36,0.0,6.0,87,0.00,,,0.00,Wunderground v.1.15,2013-08-16 07:32:00,
2013-08-16 03:38:00,55.4,51.3,30.09,NE,36,0.0,6.0,86,0.00,,,0.00,Wunderground v.1.15,2013-08-16 07:38:00,
2013-08-16 03:43:00,55.4,51.3,30.09,North,32767,-999.0,6.0,86,0.00,,,0.00,Wunderground v.1.15,2013-08-16 07:43:00,
2013-08-16 03:48:00,55.4,51.3,30.09,North,32767,-999.0,6.0,86,0.00,,,0.00,Wunderground v.1.15,2013-08-16 07:48:00,
2013-08-16 03:53:00,55.3,51.2,30.09,North,32767,-999.0,6.0,86,0.00,,,0.00,Wunderground v.1.15,2013-08-16 07:53:00,
2013-08-16 03:58:00,55.3,51.2,30.09,North,32767,-999.0,6.0,86,0.00,,,0.00,Wunderground v.1.15,2013-08-16 07:58:00,
2013-08-16 04:03:00,55.2,51.1,30.09,North,32767,-999.0,6.0,86,0.00,,,0.00,Wunderground v.1.15,2013-08-16 08:03:00,
2013-08-16 04:09:00,55.1,51.0,30.09,North,32767,-999.0,6.0,86,0.00,,,0.00,Wunderground v.1.15,2013-08-16 08:09:00,
2013-08-16 04:15:00,55.0,51.2,30.09,North,32767,-999.0,6.0,87,0.00,,,0.00,Wunderground v.1.15,2013-08-16 08:15:00,
2013-08-16 04:20:00,55.0,50.9,30.09,North,32767,-999.0,6.0,86,0.00,,,0.00,Wunderground v.1.15,2013-08-16 08:20:00,
2013-08-16 04:25:00,55.0,50.9,30.09,North,32767,-999.0,6.0,86,0.00,,,0.00,Wunderground v.1.15,2013-08-16 08:25:00,
2013-08-16 04:31:00,54.9,50.8,30.09,North,32767,-999.0,6.0,86,0.00,,,0.00,Wunderground v.1.15,2013-08-16 08:31:00,
2013-08-16 04:36:00,54.8,51.0,30.09,North,32767,-999.0,6.0,87,0.00,,,0.00,Wunderground v.1.15,2013-08-16 08:36:00,
2013-08-16 04:41:00,54.8,51.0,30.09,North,32767,-999.0,6.0,87,0.00,,,0.00,Wunderground v.1.15,2013-08-16 08:41:00,
2013-08-16 04:46:00,54.8,51.0,30.09,North,32767,-999.0,6.0,87,0.00,,,0.00,Wunderground v.1.15,2013-08-16 08:46:00,
2013-08-16 04:51:00,54.8,51.0,30.09,North,32767,-999.0,6.0,87,0.00,,,0.00,Wunderground v.1.15,2013-08-16 08:51:00,
2013-08-16 04:57:00,55.0,51.2,30.09,North,32767,-999.0,6.0,87,0.00,,,0.00,Wunderground v.1.15,2013-08-16 08:57:00,
2013-08-16 05:02:00,55.3,51.5,30.09,North,32767,-999.0,6.0,87,0.00,,,0.00,Wunderground v.1.15,2013-08-16 09:02:00,
2013-08-16 05:07:00,55.5,51.7,30.09,North,32767,-999.0,6.0,87,0.00,,,0.00,Wunderground v.1.15,2013-08-16 09:07:00,
2013-08-16 05:12:00,55.7,51.6,30.09,North,32767,-999.0,6.0,86,0.00,,,0.00,Wunderground v.1.15,2013-08-16 09:12:00,
2013-08-16 05:17:00,55.9,51.8,30.10,North,32767,-999.0,6.0,86,0.00,,,0.00,Wunderground v.1.15,2013-08-16 09:17:00,
2013-08-16 05:23:00,56.1,51.7,30.09,North,32767,-999.0,6.0,85,0.00,,,0.00,Wunderground v.1.15,2013-08-16 09:23:00,
2013-08-16 05:28:00,56.1,51.7,30.10,North,32767,-999.0,6.0,85,0.00,,,0.00,Wunderground v.1.15,2013-08-16 09:28:00,
2013-08-16 05:33:00,56.2,51.7,30.10,North,32767,-999.0,6.0,85,0.00,,,0.00,Wunderground v.1.15,2013-08-16 09:33:00,
2013-08-16 05:38:00,56.1,51.3,30.10,North,32767,-999.0,6.0,84,0.00,,,0.00,Wunderground v.1.15,2013-08-16 09:38:00,
2013-08-16 05:43:00,56.0,51.2,30.10,North,32767,-999.0,6.0,84,0.00,,,0.00,Wunderground v.1.15,2013-08-16 09:43:00,
2013-08-16 05:49:00,55.9,51.1,30.09,North,32767,-999.0,6.0,84,0.00,,,0.00,Wunderground v.1.15,2013-08-16 09:49:00,
2013-08-16 05:54:00,55.8,51.0,30.09,North,32767,-999.0,6.0,84,0.00,,,0.00,Wunderground v.1.15,2013-08-16 09:54:00,
2013-08-16 05:59:00,55.8,51.0,30.09,North,32767,-999.0,6.0,84,0.00,,,0.00,Wunderground v.1.15,2013-08-16 09:59:00,
2013-08-16 06:04:00,55.8,51.0,30.09,North,32767,-999.0,6.0,84,0.00,,,0.00,Wunderground v.1.15,2013-08-16 10:04:00,
2013-08-16 06:09:00,55.7,50.9,30.09,North,32767,-999.0,6.0,84,0.00,,,0.00,Wunderground v.1.15,2013-08-16 10:09:00,
2013-08-16 06:15:00,55.7,50.9,30.09,North,32767,-999.0,6.0,84,0.00,,,0.00,Wunderground v.1.15,2013-08-16 10:15:00,
2013-08-16 06:20:00,55.7,50.9,30.09,North,32767,-999.0,6.0,84,0.00,,,0.00,Wunderground v.1.15,2013-08-16 10:20:00,
2013-08-16 06:25:00,55.7,50.9,30.09,North,32767,-999.0,6.0,84,0.00,,,0.00,Wunderground v.1.15,2013-08-16 10:25:00,
2013-08-16 06:30:00,55.7,50.9,30.09,North,32767,-999.0,6.0,84,0.00,,,0.00,Wunderground v.1.15,2013-08-16 10:30:00,
2013-08-16 06:35:00,55.7,50.9,30.09,North,32767,-999.0,6.0,84,0.00,,,0.00,Wunderground v.1.15,2013-08-16 10:35:00,
2013-08-16 06:41:00,55.6,51.2,30.10,North,32767,-999.0,6.0,85,0.00,,,0.00,Wunderground v.1.15,2013-08-16 10:41:00,
2013-08-16 06:47:00,55.6,51.2,30.10,North,32767,-999.0,6.0,85,0.00,,,0.00,Wunderground v.1.15,2013-08-16 10:47:00,
2013-08-16 06:52:00,55.6,51.2,30.10,North,32767,-999.0,6.0,85,0.00,,,0.00,Wunderground v.1.15,2013-08-16 10:52:00,
2013-08-16 06:58:00,55.5,51.1,30.10,North,32767,-999.0,6.0,85,0.00,,,0.00,Wunderground v.1.15,2013-08-16 10:58:00,
2013-08-16 07:04:00,55.5,51.1,30.10,North,32767,-999.0,6.0,85,0.00,,,0.00,Wunderground v.1.15,2013-08-16 11:04:00,
2013-08-16 07:09:00,55.4,51.0,30.10,North,32767,-999.0,6.0,85,0.00,,,0.00,Wunderground v.1.15,2013-08-16 11:09:00,
2013-08-16 07:14:00,55.4,51.0,30.10,North,32767,-999.0,6.0,85,0.00,,,0.00,Wunderground v.1.15,2013-08-16 11:14:00,
2013-08-16 07:20:00,55.4,51.3,30.10,North,32767,-999.0,6.0,86,0.00,,,0.00,Wunderground v.1.15,2013-08-16 11:20:00,
2013-08-16 07:25:00,55.5,51.4,30.10,North,32767,-999.0,6.0,86,0.00,,,0.00,Wunderground v.1.15,2013-08-16 11:25:00,
2013-08-16 07:30:00,55.7,51.6,30.10,North,32767,-999.0,6.0,86,0.00,,,0.00,Wunderground v.1.15,2013-08-16 11:30:00,
2013-08-16 07:35:00,56.0,51.9,30.10,North,32767,-999.0,6.0,86,0.00,,,0.00,Wunderground v.1.15,2013-08-16 11:35:00,
2013-08-16 07:40:00,56.3,51.8,30.10,North,32767,-999.0,6.0,85,0.00,,,0.00,Wunderground v.1.15,2013-08-16 11:40:00,
2013-08-16 07:46:00,56.7,51.9,30.10,North,32767,-999.0,6.0,84,0.00,,,0.00,Wunderground v.1.15,2013-08-16 11:46:00,
2013-08-16 07:51:00,57.0,52.2,30.11,North,32767,-999.0,6.0,84,0.00,,,0.00,Wunderground v.1.15,2013-08-16 11:51:00,
2013-08-16 07:56:00,57.2,52.1,30.11,North,32767,-999.0,6.0,83,0.00,,,0.00,Wunderground v.1.15,2013-08-16 11:56:00,
2013-08-16 08:01:00,57.5,52.4,30.11,North,32767,-999.0,6.0,83,0.00,,,0.00,Wunderground v.1.15,2013-08-16 12:01:00,
2013-08-16 08:06:00,57.7,52.6,30.11,North,32767,-999.0,6.0,83,0.00,,,0.00,Wunderground v.1.15,2013-08-16 12:06:00,
2013-08-16 08:12:00,58.2,53.1,30.11,North,32767,-999.0,6.0,83,0.00,,,0.00,Wunderground v.1.15,2013-08-16 12:12:00,
2013-08-16 08:17:00,58.6,53.1,30.11,North,32767,-999.0,6.0,82,0.00,,,0.00,Wunderground v.1.15,2013-08-16 12:17:00,
2013-08-16 08:22:00,59.0,53.5,30.11,North,32767,-999.0,6.0,82,0.00,,,0.00,Wunderground v.1.15,2013-08-16 12:22:00,
2013-08-16 08:27:00,60.0,54.2,30.11,NE,36,0.0,6.0,81,0.00,,,0.00,Wunderground v.1.15,2013-08-16 12:27:00,
2013-08-16 08:32:00,61.1,54.9,30.11,NE,36,0.0,6.0,80,0.00,,,0.00,Wunderground v.1.15,2013-08-16 12:32:00,
2013-08-16 08:38:00,61.9,55.0,30.11,NE,36,0.0,6.0,78,0.00,,,0.00,Wunderground v.1.15,2013-08-16 12:38:00,
2013-08-16 08:43:00,62.4,55.1,30.11,NE,36,0.0,6.0,77,0.00,,,0.00,Wunderground v.1.15,2013-08-16 12:43:00,
2013-08-16 08:48:00,62.5,55.2,30.11,NE,36,0.0,6.0,77,0.00,,,0.00,Wunderground v.1.15,2013-08-16 12:48:00,
2013-08-16 08:53:00,62.7,55.7,30.11,NE,36,0.0,6.0,78,0.00,,,0.00,Wunderground v.1.15,2013-08-16 12:53:00,
2013-08-16 08:58:00,63.2,55.9,30.11,NE,36,0.0,6.0,77,0.00,,,0.00,Wunderground v.1.15,2013-08-16 12:58:00,
2013-08-16 09:04:00,64.0,56.3,30.11,NE,36,0.0,6.0,76,0.00,,,0.00,Wunderground v.1.15,2013-08-16 13:04:00,
2013-08-16 09:09:00,64.8,56.3,30.11,NE,36,0.0,6.0,74,0.00,,,0.00,Wunderground v.1.15,2013-08-16 13:09:00,
2013-08-16 09:14:00,65.2,56.7,30.11,NE,36,0.0,6.0,74,0.00,,,0.00,Wunderground v.1.15,2013-08-16 13:14:00,
2013-08-16 09:19:00,65.7,56.8,30.11,NE,36,0.0,6.0,73,0.00,,,0.00,Wunderground v.1.15,2013-08-16 13:19:00,
2013-08-16 09:24:00,66.3,58.1,30.11,NE,36,0.0,6.0,75,0.00,,,0.00,Wunderground v.1.15,2013-08-16 13:24:00,
2013-08-16 09:30:00,67.0,57.3,30.12,NE,36,0.0,6.0,71,0.00,,,0.00,Wunderground v.1.15,2013-08-16 13:30:00,
2013-08-16 09:35:00,67.6,58.2,30.12,NE,36,0.0,6.0,72,0.00,,,0.00,Wunderground v.1.15,2013-08-16 13:35:00,
2013-08-16 09:40:00,68.2,58.0,30.12,NE,36,0.0,6.0,70,0.00,,,0.00,Wunderground v.1.15,2013-08-16 13:40:00,
2013-08-16 09:45:00,68.8,58.6,30.12,NE,36,0.0,6.0,70,0.00,,,0.00,Wunderground v.1.15,2013-08-16 13:45:00,
2013-08-16 09:50:00,69.4,58.8,30.12,NE,36,0.0,6.0,69,0.00,,,0.00,Wunderground v.1.15,2013-08-16 13:50:00,
2013-08-16 09:55:00,69.8,57.9,30.12,NE,36,0.0,6.0,66,0.00,,,0.00,Wunderground v.1.15,2013-08-16 13:55:00,
2013-08-16 10:00:00,70.5,59.4,30.12,NE,36,0.0,6.0,68,0.00,,,0.00,Wunderground v.1.15,2013-08-16 14:00:00,
2013-08-16 10:06:00,71.1,60.4,30.12,NE,36,0.0,6.0,69,0.00,,,0.00,Wunderground v.1.15,2013-08-16 14:06:00,
2013-08-16 10:11:00,71.6,59.2,30.12,NE,36,0.0,6.0,65,0.00,,,0.00,Wunderground v.1.15,2013-08-16 14:11:00,
2013-08-16 10:16:00,71.7,59.3,30.12,NE,36,0.0,6.0,65,0.00,,,0.00,Wunderground v.1.15,2013-08-16 14:16:00,
2013-08-16 10:22:00,71.7,59.3,30.12,NE,36,0.0,6.0,65,0.00,,,0.00,Wunderground v.1.15,2013-08-16 14:22:00,
2013-08-16 10:27:00,71.8,59.4,30.12,NE,36,0.0,6.0,65,0.00,,,0.00,Wunderground v.1.15,2013-08-16 14:27:00,
2013-08-16 10:32:00,71.9,59.9,30.12,NE,36,0.0,6.0,66,0.00,,,0.00,Wunderground v.1.15,2013-08-16 14:32:00,
2013-08-16 10:38:00,72.2,59.8,30.12,NE,36,0.0,6.0,65,0.00,,,0.00,Wunderground v.1.15,2013-08-16 14:38:00,
2013-08-16 10:43:00,72.7,61.9,30.13,NE,36,0.0,6.0,69,0.00,,,0.00,Wunderground v.1.15,2013-08-16 14:43:00,
2013-08-16 10:48:00,72.8,59.9,30.13,NE,36,0.0,6.0,64,0.00,,,0.00,Wunderground v.1.15,2013-08-16 14:48:00,
2013-08-16 10:53:00,72.7,59.8,30.13,NE,36,0.0,6.0,64,0.00,,,0.00,Wunderground v.1.15,2013-08-16 14:53:00,
2013-08-16 10:59:00,72.6,59.7,30.13,NE,36,0.0,6.0,64,0.00,,,0.00,Wunderground v.1.15,2013-08-16 14:59:00,
2013-08-16 11:05:00,72.3,59.9,30.13,NE,36,0.0,6.0,65,0.00,,,0.00,Wunderground v.1.15,2013-08-16 15:05:00,
2013-08-16 11:10:00,72.2,60.2,30.13,North,32767,-999.0,6.0,66,0.00,,,0.00,Wunderground v.1.15,2013-08-16 15:10:00,
2013-08-16 11:16:00,72.5,60.5,30.13,North,32767,-999.0,6.0,66,0.00,,,0.00,Wunderground v.1.15,2013-08-16 15:16:00,
2013-08-16 11:21:00,73.1,60.2,30.13,North,32767,-999.0,6.0,64,0.00,,,0.00,Wunderground v.1.15,2013-08-16 15:21:00,
2013-08-16 11:26:00,73.4,60.0,30.13,North,32767,-999.0,6.0,63,0.00,,,0.00,Wunderground v.1.15,2013-08-16 15:26:00,
2013-08-16 11:31:00,73.5,58.3,30.13,North,32767,-999.0,6.0,59,0.00,,,0.00,Wunderground v.1.15,2013-08-16 15:31:00,
2013-08-16 11:36:00,73.9,60.1,30.13,North,32767,-999.0,6.0,62,0.00,,,0.00,Wunderground v.1.15,2013-08-16 15:36:00,
2013-08-16 11:42:00,73.8,57.1,30.13,North,32767,-999.0,6.0,56,0.00,,,0.00,Wunderground v.1.15,2013-08-16 15:42:00,
2013-08-16 11:47:00,73.7,59.4,30.13,North,32767,-999.0,6.0,61,0.00,,,0.00,Wunderground v.1.15,2013-08-16 15:47:00,
2013-08-16 11:52:00,74.2,59.4,30.13,North,32767,-999.0,6.0,60,0.00,,,0.00,Wunderground v.1.15,2013-08-16 15:52:00,
2013-08-16 11:58:00,74.6,59.8,30.13,North,32767,-999.0,6.0,60,0.00,,,0.00,Wunderground v.1.15,2013-08-16 15:58:00,
2013-08-16 12:03:00,74.5,57.8,30.13,North,32767,-999.0,6.0,56,0.00,,,0.00,Wunderground v.1.15,2013-08-16 16:03:00,
2013-08-16 12:08:00,73.8,58.1,30.13,North,32767,-999.0,6.0,58,0.00,,,0.00,Wunderground v.1.15,2013-08-16 16:08:00,
2013-08-16 12:13:00,73.8,58.6,30.13,North,32767,-999.0,6.0,59,0.00,,,0.00,Wunderground v.1.15,2013-08-16 16:13:00,
2013-08-16 12:18:00,74.0,57.3,30.13,North,32767,-999.0,6.0,56,0.00,,,0.00,Wunderground v.1.15,2013-08-16 16:18:00,
2013-08-16 12:23:00,74.1,59.8,30.13,North,32767,-999.0,6.0,61,0.00,,,0.00,Wunderground v.1.15,2013-08-16 16:23:00,
2013-08-16 12:29:00,74.7,58.0,30.12,North,32767,-999.0,6.0,56,0.00,,,0.00,Wunderground v.1.15,2013-08-16 16:29:00,
2013-08-16 12:35:00,74.9,58.6,30.12,North,32767,-999.0,6.0,57,0.00,,,0.00,Wunderground v.1.15,2013-08-16 16:35:00,
2013-08-16 12:40:00,74.9,59.6,30.12,North,32767,-999.0,6.0,59,0.00,,,0.00,Wunderground v.1.15,2013-08-16 16:40:00,
2013-08-16 12:46:00,75.1,59.3,30.12,North,32767,-999.0,6.0,58,0.00,,,0.00,Wunderground v.1.15,2013-08-16 16:46:00,
2013-08-16 12:51:00,75.5,59.2,30.12,North,32767,-999.0,6.0,57,0.00,,,0.00,Wunderground v.1.15,2013-08-16 16:51:00,
2013-08-16 12:56:00,75.3,59.0,30.12,North,32767,-999.0,6.0,57,0.00,,,0.00,Wunderground v.1.15,2013-08-16 16:56:00,
2013-08-16 13:01:00,75.3,58.0,30.12,North,32767,-999.0,6.0,55,0.00,,,0.00,Wunderground v.1.15,2013-08-16 17:01:00,
2013-08-16 13:07:00,75.2,58.9,30.12,North,32767,-999.0,6.0,57,0.00,,,0.00,Wunderground v.1.15,2013-08-16 17:07:00,
2013-08-16 13:12:00,75.2,59.9,30.12,North,32767,-999.0,6.0,59,0.00,,,0.00,Wunderground v.1.15,2013-08-16 17:12:00,
2013-08-16 13:18:00,75.4,59.6,30.12,North,32767,-999.0,6.0,58,0.00,,,0.00,Wunderground v.1.15,2013-08-16 17:18:00,
2013-08-16 13:23:00,75.3,61.8,30.12,North,32767,-999.0,6.0,63,0.00,,,0.00,Wunderground v.1.15,2013-08-16 17:23:00,
2013-08-16 13:28:00,75.0,59.2,30.12,North,32767,-999.0,6.0,58,0.00,,,0.00,Wunderground v.1.15,2013-08-16 17:28:00,
2013-08-16 13:34:00,74.5,59.2,30.12,North,32767,-999.0,6.0,59,0.00,,,0.00,Wunderground v.1.15,2013-08-16 17:34:00,
2013-08-16 13:39:00,74.4,58.2,30.12,North,32767,-999.0,6.0,57,0.00,,,0.00,Wunderground v.1.15,2013-08-16 17:39:00,
2013-08-16 13:44:00,74.0,58.8,30.12,North,32767,-999.0,6.0,59,0.00,,,0.00,Wunderground v.1.15,2013-08-16 17:44:00,
2013-08-16 13:49:00,74.0,58.8,30.12,North,32767,-999.0,6.0,59,0.00,,,0.00,Wunderground v.1.15,2013-08-16 17:49:00,
2013-08-16 13:54:00,74.2,58.9,30.12,North,32767,-999.0,6.0,59,0.00,,,0.00,Wunderground v.1.15,2013-08-16 17:54:00,
2013-08-16 13:59:00,75.1,59.3,30.11,North,32767,-999.0,6.0,58,0.00,,,0.00,Wunderground v.1.15,2013-08-16 17:59:00,
2013-08-16 14:04:00,75.8,61.4,30.11,North,32767,-999.0,6.0,61,0.00,,,0.00,Wunderground v.1.15,2013-08-16 18:04:00,
2013-08-16 14:10:00,76.2,59.4,30.11,North,32767,-999.0,6.0,56,0.00,,,0.00,Wunderground v.1.15,2013-08-16 18:10:00,
2013-08-16 14:16:00,76.0,59.2,30.11,North,32767,-999.0,6.0,56,0.00,,,0.00,Wunderground v.1.15,2013-08-16 18:16:00,
2013-08-16 14:22:00,76.4,60.5,30.11,North,32767,-999.0,6.0,58,0.00,,,0.00,Wunderground v.1.15,2013-08-16 18:22:00,
2013-08-16 14:28:00,76.9,59.5,30.11,North,32767,-999.0,6.0,55,0.00,,,0.00,Wunderground v.1.15,2013-08-16 18:28:00,
2013-08-16 14:34:00,77.1,58.1,30.11,North,32767,-999.0,6.0,52,0.00,,,0.00,Wunderground v.1.15,2013-08-16 18:34:00,
2013-08-16 14:39:00,77.4,58.9,30.11,North,32767,-999.0,6.0,53,0.00,,,0.00,Wunderground v.1.15,2013-08-16 18:39:00,
2013-08-16 14:45:00,77.2,59.3,30.11,North,32767,-999.0,6.0,54,0.00,,,0.00,Wunderground v.1.15,2013-08-16 18:45:00,
2013-08-16 14:51:00,76.9,59.0,30.11,North,32767,-999.0,6.0,54,0.00,,,0.00,Wunderground v.1.15,2013-08-16 18:51:00,
2013-08-16 14:56:00,76.8,60.9,30.10,North,32767,-999.0,6.0,58,0.00,,,0.00,Wunderground v.1.15,2013-08-16 18:56:00,
2013-08-16 15:01:00,77.2,61.3,30.10,North,32767,-999.0,6.0,58,0.00,,,0.00,Wunderground v.1.15,2013-08-16 19:01:00,
2013-08-16 15:07:00,77.7,60.8,30.10,North,32767,-999.0,6.0,56,0.00,,,0.00,Wunderground v.1.15,2013-08-16 19:07:00,
2013-08-16 15:12:00,78.1,60.6,30.10,North,32767,-999.0,6.0,55,0.00,,,0.00,Wunderground v.1.15,2013-08-16 19:12:00,
2013-08-16 15:18:00,78.2,60.7,30.10,North,32767,-999.0,6.0,55,0.00,,,0.00,Wunderground v.1.15,2013-08-16 19:18:00,
2013-08-16 15:23:00,78.3,60.3,30.10,NE,36,0.0,6.0,54,0.00,,,0.00,Wunderground v.1.15,2013-08-16 19:23:00,
2013-08-16 15:29:00,77.8,59.8,30.10,NE,36,0.0,6.0,54,0.00,,,0.00,Wunderground v.1.15,2013-08-16 19:29:00,
2013-08-16 15:34:00,77.8,61.8,30.09,NE,36,0.0,6.0,58,0.00,,,0.00,Wunderground v.1.15,2013-08-16 19:34:00,
2013-08-16 15:39:00,77.6,59.6,30.09,NE,36,0.0,6.0,54,0.00,,,0.00,Wunderground v.1.15,2013-08-16 19:39:00,
2013-08-16 15:44:00,77.1,60.7,30.09,NE,36,0.0,6.0,57,0.00,,,0.00,Wunderground v.1.15,2013-08-16 19:44:00,
2013-08-16 15:49:00,77.0,60.1,30.09,NE,36,0.0,6.0,56,0.00,,,0.00,Wunderground v.1.15,2013-08-16 19:49:00,
2013-08-16 15:54:00,77.4,60.5,30.09,NE,36,0.0,6.0,56,0.00,,,0.00,Wunderground v.1.15,2013-08-16 19:54:00,
2013-08-16 15:59:00,77.2,60.3,30.09,NE,36,0.0,6.0,56,0.00,,,0.00,Wunderground v.1.15,2013-08-16 19:59:00,
2013-08-16 16:05:00,77.3,59.9,30.09,NE,36,0.0,6.0,55,0.00,,,0.00,Wunderground v.1.15,2013-08-16 20:05:00,
2013-08-16 16:11:00,77.3,59.9,30.09,NE,36,0.0,6.0,55,0.00,,,0.00,Wunderground v.1.15,2013-08-16 20:11:00,
2013-08-16 16:16:00,77.0,59.1,30.09,NE,36,0.0,6.0,54,0.00,,,0.00,Wunderground v.1.15,2013-08-16 20:16:00,
2013-08-16 16:21:00,76.5,58.6,30.09,NE,36,0.0,6.0,54,0.00,,,0.00,Wunderground v.1.15,2013-08-16 20:21:00,
2013-08-16 16:26:00,76.0,59.2,30.09,NE,36,0.0,6.0,56,0.00,,,0.00,Wunderground v.1.15,2013-08-16 20:26:00,
2013-08-16 16:31:00,75.8,60.0,30.09,NE,36,0.0,6.0,58,0.00,,,0.00,Wunderground v.1.15,2013-08-16 20:31:00,
2013-08-16 16:36:00,76.3,59.4,30.09,NE,36,0.0,6.0,56,0.00,,,0.00,Wunderground v.1.15,2013-08-16 20:36:00,
2013-08-16 16:41:00,76.6,59.2,30.09,NE,36,0.0,6.0,55,0.00,,,0.00,Wunderground v.1.15,2013-08-16 20:41:00,
2013-08-16 16:46:00,76.3,59.4,30.09,NE,36,0.0,6.0,56,0.00,,,0.00,Wunderground v.1.15,2013-08-16 20:46:00,
2013-08-16 16:51:00,75.8,59.0,30.09,NE,36,0.0,6.0,56,0.00,,,0.00,Wunderground v.1.15,2013-08-16 20:51:00,
2013-08-16 16:56:00,75.5,58.7,30.09,NE,36,0.0,6.0,56,0.00,,,0.00,Wunderground v.1.15,2013-08-16 20:56:00,
2013-08-16 17:01:00,75.4,59.1,30.09,NE,36,0.0,6.0,57,0.00,,,0.00,Wunderground v.1.15,2013-08-16 21:01:00,
2013-08-16 17:07:00,75.5,59.2,30.09,NE,36,0.0,6.0,57,0.00,,,0.00,Wunderground v.1.15,2013-08-16 21:07:00,
2013-08-16 17:12:00,75.3,60.0,30.10,NE,36,0.0,6.0,59,0.00,,,0.00,Wunderground v.1.15,2013-08-16 21:12:00,
2013-08-16 17:17:00,75.1,59.3,30.10,NNE,33,0.0,6.0,58,0.00,,,0.00,Wunderground v.1.15,2013-08-16 21:17:00,
2013-08-16 17:23:00,75.0,61.1,30.10,NNE,33,0.0,6.0,62,0.00,,,0.00,Wunderground v.1.15,2013-08-16 21:23:00,
2013-08-16 17:28:00,74.9,59.1,30.10,NNE,33,0.0,6.0,58,0.00,,,0.00,Wunderground v.1.15,2013-08-16 21:28:00,
2013-08-16 17:33:00,74.6,58.8,30.10,NNE,33,0.0,6.0,58,0.00,,,0.00,Wunderground v.1.15,2013-08-16 21:33:00,
2013-08-16 17:38:00,74.4,59.1,30.10,NNE,33,0.0,6.0,59,0.00,,,0.00,Wunderground v.1.15,2013-08-16 21:38:00,
2013-08-16 17:43:00,74.2,58.5,30.10,North,32767,-999.0,6.0,58,0.00,,,0.00,Wunderground v.1.15,2013-08-16 21:43:00,
2013-08-16 17:48:00,74.0,59.2,30.10,North,32767,-999.0,6.0,60,0.00,,,0.00,Wunderground v.1.15,2013-08-16 21:48:00,
2013-08-16 17:53:00,73.9,60.1,30.10,North,32767,-999.0,6.0,62,0.00,,,0.00,Wunderground v.1.15,2013-08-16 21:53:00,
2013-08-16 17:59:00,73.7,58.9,30.10,North,32767,-999.0,6.0,60,0.00,,,0.00,Wunderground v.1.15,2013-08-16 21:59:00,
2013-08-16 18:04:00,73.4,59.1,30.10,North,32767,-999.0,6.0,61,0.00,,,0.00,Wunderground v.1.15,2013-08-16 22:04:00,
2013-08-16 18:10:00,73.1,58.8,30.10,North,32767,-999.0,6.0,61,0.00,,,0.00,Wunderground v.1.15,2013-08-16 22:10:00,
2013-08-16 18:15:00,72.9,59.1,30.10,North,32767,-999.0,6.0,62,0.00,,,0.00,Wunderground v.1.15,2013-08-16 22:15:00,
2013-08-16 18:20:00,72.9,59.1,30.10,North,32767,-999.0,6.0,62,0.00,,,0.00,Wunderground v.1.15,2013-08-16 22:20:00,
2013-08-16 18:25:00,72.8,59.0,30.10,North,32767,-999.0,6.0,62,0.00,,,0.00,Wunderground v.1.15,2013-08-16 22:25:00,
2013-08-16 18:30:00,72.9,59.6,30.10,North,32767,-999.0,6.0,63,0.00,,,0.00,Wunderground v.1.15,2013-08-16 22:30:00,
2013-08-16 18:35:00,72.9,59.1,30.10,North,32767,-999.0,6.0,62,0.00,,,0.00,Wunderground v.1.15,2013-08-16 22:35:00,
2013-08-16 18:40:00,73.1,59.3,30.10,North,32767,-999.0,6.0,62,0.00,,,0.00,Wunderground v.1.15,2013-08-16 22:40:00,
2013-08-16 18:45:00,73.1,59.8,30.10,North,32767,-999.0,6.0,63,0.00,,,0.00,Wunderground v.1.15,2013-08-16 22:45:00,
2013-08-16 18:50:00,73.3,59.5,30.10,North,32767,-999.0,6.0,62,0.00,,,0.00,Wunderground v.1.15,2013-08-16 22:50:00,
2013-08-16 18:56:00,73.3,59.5,30.10,North,32767,-999.0,6.0,62,0.00,,,0.00,Wunderground v.1.15,2013-08-16 22:56:00,
2013-08-16 19:01:00,73.3,59.5,30.10,North,32767,-999.0,6.0,62,0.00,,,0.00,Wunderground v.1.15,2013-08-16 23:01:00,
2013-08-16 19:07:00,73.2,59.8,30.10,North,32767,-999.0,6.0,63,0.00,,,0.00,Wunderground v.1.15,2013-08-16 23:07:00,
2013-08-16 19:13:00,73.0,59.7,30.10,North,32767,-999.0,6.0,63,0.00,,,0.00,Wunderground v.1.15,2013-08-16 23:13:00,
2013-08-16 19:19:00,72.8,59.5,30.10,North,32767,-999.0,6.0,63,0.00,,,0.00,Wunderground v.1.15,2013-08-16 23:19:00,
2013-08-16 19:25:00,72.3,59.4,30.10,North,32767,-999.0,6.0,64,0.00,,,0.00,Wunderground v.1.15,2013-08-16 23:25:00,
2013-08-16 19:30:00,71.7,58.9,30.11,North,32767,-999.0,6.0,64,0.00,,,0.00,Wunderground v.1.15,2013-08-16 23:30:00,
2013-08-16 19:35:00,71.3,58.9,30.11,North,32767,-999.0,6.0,65,0.00,,,0.00,Wunderground v.1.15,2013-08-16 23:35:00,
2013-08-16 19:41:00,70.9,59.0,30.11,North,32767,-999.0,6.0,66,0.00,,,0.00,Wunderground v.1.15,2013-08-16 23:41:00,
2013-08-16 19:46:00,70.6,58.7,30.11,North,32767,-999.0,6.0,66,0.00,,,0.00,Wunderground v.1.15,2013-08-16 23:46:00,
2013-08-16 19:52:00,70.3,58.8,30.11,North,32767,-999.0,6.0,67,0.00,,,0.00,Wunderground v.1.15,2013-08-16 23:52:00,
2013-08-16 19:58:00,69.9,58.9,30.11,North,32767,-999.0,6.0,68,0.00,,,0.00,Wunderground v.1.15,2013-08-16 23:58:00,
2013-08-16 20:04:00,69.4,58.8,30.11,North,32767,-999.0,6.0,69,0.00,,,0.00,Wunderground v.1.15,2013-08-17 00:04:00,
2013-08-16 20:10:00,68.8,58.6,30.11,North,32767,-999.0,6.0,70,0.00,,,0.00,Wunderground v.1.15,2013-08-17 00:10:00,
2013-08-16 20:15:00,68.2,58.4,30.11,North,32767,-999.0,6.0,71,0.00,,,0.00,Wunderground v.1.15,2013-08-17 00:15:00,
2013-08-16 20:21:00,67.6,58.2,30.11,North,32767,-999.0,6.0,72,0.00,,,0.00,Wunderground v.1.15,2013-08-17 00:21:00,
2013-08-16 20:26:00,67.1,58.5,30.11,North,32767,-999.0,6.0,74,0.00,,,0.00,Wunderground v.1.15,2013-08-17 00:26:00,
2013-08-16 20:31:00,66.5,58.0,30.11,North,32767,-999.0,6.0,74,0.00,,,0.00,Wunderground v.1.15,2013-08-17 00:31:00,
2013-08-16 20:36:00,66.0,57.5,30.11,North,32767,-999.0,6.0,74,0.00,,,0.00,Wunderground v.1.15,2013-08-17 00:36:00,
2013-08-16 20:41:00,65.5,57.4,30.12,North,32767,-999.0,6.0,75,0.00,,,0.00,Wunderground v.1.15,2013-08-17 00:41:00,
2013-08-16 20:46:00,65.0,57.2,30.11,North,32767,-999.0,6.0,76,0.00,,,0.00,Wunderground v.1.15,2013-08-17 00:46:00,
2013-08-16 20:51:00,64.6,57.2,30.11,North,32767,-999.0,6.0,77,0.00,,,0.00,Wunderground v.1.15,2013-08-17 00:51:00,
2013-08-16 20:57:00,64.2,57.2,30.11,North,32767,-999.0,6.0,78,0.00,,,0.00,Wunderground v.1.15,2013-08-17 00:57:00,
2013-08-16 21:02:00,63.8,56.8,30.11,North,32767,-999.0,6.0,78,0.00,,,0.00,Wunderground v.1.15,2013-08-17 01:02:00,
2013-08-16 21:07:00,63.4,56.4,30.11,North,32767,-999.0,6.0,78,0.00,,,0.00,Wunderground v.1.15,2013-08-17 01:07:00,
2013-08-16 21:12:00,63.3,56.3,30.11,North,32767,-999.0,6.0,78,0.00,,,0.00,Wunderground v.1.15,2013-08-17 01:12:00,
2013-08-16 21:18:00,63.2,56.2,30.11,North,32767,-999.0,6.0,78,0.00,,,0.00,Wunderground v.1.15,2013-08-17 01:18:00,
2013-08-16 21:23:00,63.1,56.1,30.11,North,32767,-999.0,6.0,78,0.00,,,0.00,Wunderground v.1.15,2013-08-17 01:23:00,
2013-08-16 21:28:00,63.0,56.0,30.11,North,32767,-999.0,6.0,78,0.00,,,0.00,Wunderground v.1.15,2013-08-17 01:28:00,
2013-08-16 21:33:00,63.0,56.0,30.11,North,32767,-999.0,6.0,78,0.00,,,0.00,Wunderground v.1.15,2013-08-17 01:33:00,
2013-08-16 21:39:00,62.9,55.9,30.11,North,32767,-999.0,6.0,78,0.00,,,0.00,Wunderground v.1.15,2013-08-17 01:39:00,
2013-08-16 21:45:00,62.8,55.8,30.11,North,32767,-999.0,6.0,78,0.00,,,0.00,Wunderground v.1.15,2013-08-17 01:45:00,
2013-08-16 21:51:00,62.7,55.7,30.12,North,32767,-999.0,6.0,78,0.00,,,0.00,Wunderground v.1.15,2013-08-17 01:51:00,
2013-08-16 21:57:00,62.5,55.5,30.12,North,32767,-999.0,6.0,78,0.00,,,0.00,Wunderground v.1.15,2013-08-17 01:57:00,
2013-08-16 22:02:00,62.3,55.7,30.13,North,32767,-999.0,6.0,79,0.00,,,0.00,Wunderground v.1.15,2013-08-17 02:02:00,
2013-08-16 22:07:00,62.3,55.7,30.13,North,32767,-999.0,6.0,79,0.00,,,0.00,Wunderground v.1.15,2013-08-17 02:07:00,
2013-08-16 22:12:00,62.3,55.4,30.13,North,32767,-999.0,6.0,78,0.00,,,0.00,Wunderground v.1.15,2013-08-17 02:12:00,
2013-08-16 22:18:00,62.3,55.7,30.13,North,32767,-999.0,6.0,79,0.00,,,0.00,Wunderground v.1.15,2013-08-17 02:18:00,
2013-08-16 22:23:00,62.3,55.7,30.13,North,32767,-999.0,6.0,79,0.00,,,0.00,Wunderground v.1.15,2013-08-17 02:23:00,
2013-08-16 22:28:00,62.4,55.4,30.13,North,32767,-999.0,6.0,78,0.00,,,0.00,Wunderground v.1.15,2013-08-17 02:28:00,
2013-08-16 22:33:00,62.5,55.5,30.12,North,32767,-999.0,6.0,78,0.00,,,0.00,Wunderground v.1.15,2013-08-17 02:33:00,
2013-08-16 22:38:00,62.7,55.7,30.13,North,32767,-999.0,6.0,78,0.00,,,0.00,Wunderground v.1.15,2013-08-17 02:38:00,
2013-08-16 22:44:00,62.9,55.9,30.13,North,32767,-999.0,6.0,78,0.00,,,0.00,Wunderground v.1.15,2013-08-17 02:44:00,
2013-08-16 22:49:00,62.9,55.9,30.13,North,32767,-999.0,6.0,78,0.00,,,0.00,Wunderground v.1.15,2013-08-17 02:49:00,
2013-08-16 22:54:00,63.0,55.7,30.13,North,32767,-999.0,6.0,77,0.00,,,0.00,Wunderground v.1.15,2013-08-17 02:54:00,
2013-08-16 22:59:00,63.0,55.7,30.13,North,32767,-999.0,6.0,77,0.00,,,0.00,Wunderground v.1.15,2013-08-17 02:59:00,
2013-08-16 23:04:00,63.0,55.7,30.13,North,32767,-999.0,6.0,77,0.00,,,0.00,Wunderground v.1.15,2013-08-17 03:04:00,
2013-08-16 23:10:00,63.0,55.7,30.13,North,32767,-999.0,6.0,77,0.00,,,0.00,Wunderground v.1.15,2013-08-17 03:10:00,
2013-08-16 23:15:00,62.8,55.5,30.13,North,32767,-999.0,6.0,77,0.00,,,0.00,Wunderground v.1.15,2013-08-17 03:15:00,
2013-08-16 23:20:00,62.7,55.7,30.13,North,32767,-999.0,6.0,78,0.00,,,0.00,Wunderground v.1.15,2013-08-17 03:20:00,
2013-08-16 23:26:00,62.5,55.5,30.13,North,32767,-999.0,6.0,78,0.00,,,0.00,Wunderground v.1.15,2013-08-17 03:26:00,
2013-08-16 23:32:00,62.3,55.4,30.13,North,32767,-999.0,6.0,78,0.00,,,0.00,Wunderground v.1.15,2013-08-17 03:32:00,
2013-08-16 23:37:00,62.2,55.3,30.13,North,32767,-999.0,6.0,78,0.00,,,0.00,Wunderground v.1.15,2013-08-17 03:37:00,
2013-08-16 23:42:00,62.1,55.2,30.13,North,32767,-999.0,6.0,78,0.00,,,0.00,Wunderground v.1.15,2013-08-17 03:42:00,
2013-08-16 23:47:00,62.1,55.2,30.13,North,32767,-999.0,6.0,78,0.00,,,0.00,Wunderground v.1.15,2013-08-17 03:47:00,
2013-08-16 23:52:00,62.0,55.1,30.13,North,32767,-999.0,6.0,78,0.00,,,0.00,Wunderground v.1.15,2013-08-17 03:52:00,
2013-08-16 23:58:00,61.9,55.3,30.13,North,32767,-999.0,6.0,79,0.00,,,0.00,Wunderground v.1.15,2013-08-17 03:58:00,